sensor_id;sensor_type;location;lat;lon;timestamp;P1;durP1;ratioP1;P2;durP2;ratioP2
19919;SDS011;10122;50.074;19.920;2023-09-19T00:00:37;29.23;;;18.15;;
19919;SDS011;10122;50.074;19.920;2023-09-19T00:03:05;30.67;;;18.50;;
19919;SDS011;10122;50.074;19.920;2023-09-19T00:05:35;23.85;;;16.75;;
19919;SDS011;10122;50.074;19.920;2023-09-19T00:08:01;23.50;;;16.73;;
19919;SDS011;10122;50.074;19.920;2023-09-19T00:10:31;25.50;;;16.63;;
19919;SDS011;10122;50.074;19.920;2023-09-19T00:13:00;26.85;;;17.63;;
19919;SDS011;10122;50.074;19.920;2023-09-19T00:15:30;28.30;;;17.25;;
19919;SDS011;10122;50.074;19.920;2023-09-19T00:17:58;29.90;;;17.70;;
19919;SDS011;10122;50.074;19.920;2023-09-19T00:20:24;29.70;;;17.50;;
19919;SDS011;10122;50.074;19.920;2023-09-19T00:22:51;24.90;;;17.08;;
19919;SDS011;10122;50.074;19.920;2023-09-19T00:25:18;27.77;;;16.85;;
19919;SDS011;10122;50.074;19.920;2023-09-19T00:27:45;23.83;;;16.27;;
19919;SDS011;10122;50.074;19.920;2023-09-19T00:30:13;25.83;;;16.60;;
19919;SDS011;10122;50.074;19.920;2023-09-19T00:32:43;27.02;;;16.52;;
19919;SDS011;10122;50.074;19.920;2023-09-19T00:35:12;25.52;;;16.20;;
19919;SDS011;10122;50.074;19.920;2023-09-19T00:37:39;25.30;;;16.98;;
19919;SDS011;10122;50.074;19.920;2023-09-19T00:40:06;25.85;;;17.13;;
19919;SDS011;10122;50.074;19.920;2023-09-19T00:42:36;22.63;;;16.05;;
19919;SDS011;10122;50.074;19.920;2023-09-19T00:45:03;25.83;;;16.75;;
19919;SDS011;10122;50.074;19.920;2023-09-19T00:47:29;23.73;;;16.42;;
19919;SDS011;10122;50.074;19.920;2023-09-19T00:49:55;23.60;;;16.30;;
19919;SDS011;10122;50.074;19.920;2023-09-19T00:52:21;27.77;;;16.60;;
19919;SDS011;10122;50.074;19.920;2023-09-19T00:54:49;26.83;;;15.98;;
19919;SDS011;10122;50.074;19.920;2023-09-19T00:57:15;28.00;;;16.73;;
19919;SDS011;10122;50.074;19.920;2023-09-19T00:59:42;24.40;;;16.35;;
19919;SDS011;10122;50.074;19.920;2023-09-19T01:02:08;19.98;;;15.70;;
19919;SDS011;10122;50.074;19.920;2023-09-19T01:04:35;26.08;;;17.05;;
19919;SDS011;10122;50.074;19.920;2023-09-19T01:07:02;22.42;;;16.10;;
19919;SDS011;10122;50.074;19.920;2023-09-19T01:09:28;21.63;;;15.50;;
19919;SDS011;10122;50.074;19.920;2023-09-19T01:11:57;20.15;;;15.02;;
19919;SDS011;10122;50.074;19.920;2023-09-19T01:14:37;22.17;;;15.07;;
19919;SDS011;10122;50.074;19.920;2023-09-19T01:17:09;21.52;;;14.82;;
19919;SDS011;10122;50.074;19.920;2023-09-19T01:24:55;22.55;;;14.18;;
19919;SDS011;10122;50.074;19.920;2023-09-19T01:30:15;21.45;;;15.35;;
19919;SDS011;10122;50.074;19.920;2023-09-19T01:32:43;23.63;;;15.45;;
19919;SDS011;10122;50.074;19.920;2023-09-19T01:35:11;20.30;;;14.55;;
19919;SDS011;10122;50.074;19.920;2023-09-19T01:37:38;18.27;;;14.85;;
19919;SDS011;10122;50.074;19.920;2023-09-19T01:40:05;23.90;;;15.25;;
19919;SDS011;10122;50.074;19.920;2023-09-19T01:51:00;21.98;;;15.95;;
19919;SDS011;10122;50.074;19.920;2023-09-19T01:53:27;19.02;;;14.80;;
19919;SDS011;10122;50.074;19.920;2023-09-19T01:55:55;20.52;;;14.98;;
19919;SDS011;10122;50.074;19.920;2023-09-19T01:58:24;21.65;;;15.32;;
19919;SDS011;10122;50.074;19.920;2023-09-19T02:00:53;19.88;;;15.07;;
19919;SDS011;10122;50.074;19.920;2023-09-19T02:03:20;22.55;;;15.43;;
19919;SDS011;10122;50.074;19.920;2023-09-19T02:05:50;25.70;;;15.35;;
19919;SDS011;10122;50.074;19.920;2023-09-19T02:08:19;21.33;;;15.02;;
19919;SDS011;10122;50.074;19.920;2023-09-19T02:10:45;21.08;;;15.95;;
19919;SDS011;10122;50.074;19.920;2023-09-19T02:13:17;21.27;;;15.77;;
19919;SDS011;10122;50.074;19.920;2023-09-19T02:15:46;21.15;;;16.02;;
19919;SDS011;10122;50.074;19.920;2023-09-19T02:18:13;24.00;;;15.90;;
19919;SDS011;10122;50.074;19.920;2023-09-19T02:20:39;24.10;;;16.25;;
19919;SDS011;10122;50.074;19.920;2023-09-19T02:23:05;25.10;;;16.02;;
19919;SDS011;10122;50.074;19.920;2023-09-19T02:25:33;22.98;;;16.73;;
19919;SDS011;10122;50.074;19.920;2023-09-19T02:28:00;22.88;;;16.00;;
19919;SDS011;10122;50.074;19.920;2023-09-19T02:30:28;24.33;;;16.60;;
19919;SDS011;10122;50.074;19.920;2023-09-19T02:32:54;23.15;;;15.88;;
19919;SDS011;10122;50.074;19.920;2023-09-19T02:35:20;20.05;;;16.25;;
19919;SDS011;10122;50.074;19.920;2023-09-19T02:37:46;23.42;;;16.02;;
19919;SDS011;10122;50.074;19.920;2023-09-19T02:40:12;27.02;;;16.38;;
19919;SDS011;10122;50.074;19.920;2023-09-19T02:42:47;22.50;;;15.48;;
19919;SDS011;10122;50.074;19.920;2023-09-19T02:45:17;21.73;;;15.98;;
19919;SDS011;10122;50.074;19.920;2023-09-19T02:47:47;20.65;;;15.88;;
19919;SDS011;10122;50.074;19.920;2023-09-19T02:50:13;23.50;;;16.15;;
19919;SDS011;10122;50.074;19.920;2023-09-19T02:52:43;24.05;;;16.08;;
19919;SDS011;10122;50.074;19.920;2023-09-19T02:55:09;24.40;;;16.17;;
19919;SDS011;10122;50.074;19.920;2023-09-19T02:57:36;23.50;;;16.33;;
19919;SDS011;10122;50.074;19.920;2023-09-19T03:00:06;24.13;;;16.90;;
19919;SDS011;10122;50.074;19.920;2023-09-19T03:02:32;21.50;;;16.73;;
19919;SDS011;10122;50.074;19.920;2023-09-19T03:04:59;25.30;;;15.82;;
19919;SDS011;10122;50.074;19.920;2023-09-19T03:07:26;21.10;;;16.02;;
19919;SDS011;10122;50.074;19.920;2023-09-19T03:09:52;27.33;;;16.98;;
19919;SDS011;10122;50.074;19.920;2023-09-19T03:12:18;26.95;;;16.40;;
19919;SDS011;10122;50.074;19.920;2023-09-19T03:14:44;25.02;;;17.15;;
19919;SDS011;10122;50.074;19.920;2023-09-19T03:17:10;22.92;;;16.95;;
19919;SDS011;10122;50.074;19.920;2023-09-19T03:19:39;24.60;;;17.15;;
19919;SDS011;10122;50.074;19.920;2023-09-19T03:22:05;26.15;;;17.30;;
19919;SDS011;10122;50.074;19.920;2023-09-19T03:24:32;22.75;;;16.77;;
19919;SDS011;10122;50.074;19.920;2023-09-19T03:27:00;27.77;;;16.88;;
19919;SDS011;10122;50.074;19.920;2023-09-19T03:29:26;22.25;;;16.77;;
19919;SDS011;10122;50.074;19.920;2023-09-19T03:31:52;26.45;;;17.55;;
19919;SDS011;10122;50.074;19.920;2023-09-19T03:34:19;25.27;;;17.17;;
19919;SDS011;10122;50.074;19.920;2023-09-19T03:36:45;24.88;;;17.05;;
19919;SDS011;10122;50.074;19.920;2023-09-19T03:39:12;22.70;;;17.17;;
19919;SDS011;10122;50.074;19.920;2023-09-19T03:41:40;25.25;;;17.30;;
19919;SDS011;10122;50.074;19.920;2023-09-19T03:44:06;26.83;;;16.90;;
19919;SDS011;10122;50.074;19.920;2023-09-19T03:46:33;27.85;;;17.75;;
19919;SDS011;10122;50.074;19.920;2023-09-19T03:49:00;25.75;;;18.63;;
19919;SDS011;10122;50.074;19.920;2023-09-19T03:51:26;27.15;;;18.25;;
19919;SDS011;10122;50.074;19.920;2023-09-19T03:53:52;24.20;;;17.83;;
19919;SDS011;10122;50.074;19.920;2023-09-19T03:56:18;28.63;;;18.27;;
19919;SDS011;10122;50.074;19.920;2023-09-19T03:58:44;23.48;;;17.70;;
19919;SDS011;10122;50.074;19.920;2023-09-19T04:01:10;27.25;;;18.58;;
19919;SDS011;10122;50.074;19.920;2023-09-19T04:03:38;27.92;;;18.45;;
19919;SDS011;10122;50.074;19.920;2023-09-19T04:06:13;24.75;;;16.67;;
19919;SDS011;10122;50.074;19.920;2023-09-19T04:08:39;24.80;;;17.95;;
19919;SDS011;10122;50.074;19.920;2023-09-19T04:11:06;23.42;;;17.92;;
19919;SDS011;10122;50.074;19.920;2023-09-19T04:13:32;25.95;;;17.50;;
19919;SDS011;10122;50.074;19.920;2023-09-19T04:15:58;25.58;;;17.75;;
19919;SDS011;10122;50.074;19.920;2023-09-19T04:18:24;27.20;;;17.88;;
19919;SDS011;10122;50.074;19.920;2023-09-19T04:20:50;23.83;;;17.35;;
19919;SDS011;10122;50.074;19.920;2023-09-19T04:23:16;25.65;;;17.63;;
19919;SDS011;10122;50.074;19.920;2023-09-19T04:25:45;23.52;;;17.42;;
19919;SDS011;10122;50.074;19.920;2023-09-19T04:28:11;27.35;;;18.23;;
19919;SDS011;10122;50.074;19.920;2023-09-19T04:30:37;26.67;;;17.75;;
19919;SDS011;10122;50.074;19.920;2023-09-19T04:33:05;33.13;;;18.40;;
19919;SDS011;10122;50.074;19.920;2023-09-19T04:35:32;25.67;;;18.55;;
19919;SDS011;10122;50.074;19.920;2023-09-19T04:37:58;26.40;;;16.67;;
19919;SDS011;10122;50.074;19.920;2023-09-19T04:40:24;26.23;;;17.95;;
19919;SDS011;10122;50.074;19.920;2023-09-19T04:42:54;22.95;;;16.70;;
19919;SDS011;10122;50.074;19.920;2023-09-19T04:45:22;27.27;;;18.02;;
19919;SDS011;10122;50.074;19.920;2023-09-19T04:47:48;25.30;;;18.10;;
19919;SDS011;10122;50.074;19.920;2023-09-19T04:50:14;24.63;;;17.02;;
19919;SDS011;10122;50.074;19.920;2023-09-19T04:52:42;23.85;;;17.15;;
19919;SDS011;10122;50.074;19.920;2023-09-19T04:55:18;24.05;;;16.90;;
19919;SDS011;10122;50.074;19.920;2023-09-19T04:57:45;26.30;;;17.00;;
19919;SDS011;10122;50.074;19.920;2023-09-19T05:00:12;26.40;;;17.73;;
19919;SDS011;10122;50.074;19.920;2023-09-19T05:02:39;28.02;;;17.65;;
19919;SDS011;10122;50.074;19.920;2023-09-19T05:05:06;25.95;;;17.73;;
19919;SDS011;10122;50.074;19.920;2023-09-19T05:07:33;26.25;;;17.23;;
19919;SDS011;10122;50.074;19.920;2023-09-19T05:09:59;23.25;;;17.02;;
19919;SDS011;10122;50.074;19.920;2023-09-19T05:12:28;24.02;;;16.48;;
19919;SDS011;10122;50.074;19.920;2023-09-19T05:14:54;26.13;;;17.33;;
19919;SDS011;10122;50.074;19.920;2023-09-19T05:17:20;23.42;;;16.77;;
19919;SDS011;10122;50.074;19.920;2023-09-19T05:19:46;23.98;;;16.83;;
19919;SDS011;10122;50.074;19.920;2023-09-19T05:22:13;23.92;;;17.77;;
19919;SDS011;10122;50.074;19.920;2023-09-19T05:24:39;24.67;;;17.30;;
19919;SDS011;10122;50.074;19.920;2023-09-19T05:27:05;25.85;;;17.17;;
19919;SDS011;10122;50.074;19.920;2023-09-19T05:29:32;27.50;;;18.00;;
19919;SDS011;10122;50.074;19.920;2023-09-19T05:31:59;23.77;;;17.27;;
19919;SDS011;10122;50.074;19.920;2023-09-19T05:34:25;23.48;;;16.73;;
19919;SDS011;10122;50.074;19.920;2023-09-19T05:36:54;24.35;;;17.45;;
19919;SDS011;10122;50.074;19.920;2023-09-19T05:39:20;27.05;;;16.95;;
19919;SDS011;10122;50.074;19.920;2023-09-19T05:41:47;23.27;;;17.15;;
19919;SDS011;10122;50.074;19.920;2023-09-19T05:44:14;26.00;;;16.90;;
19919;SDS011;10122;50.074;19.920;2023-09-19T05:46:40;24.80;;;16.92;;
19919;SDS011;10122;50.074;19.920;2023-09-19T05:49:06;24.15;;;17.20;;
19919;SDS011;10122;50.074;19.920;2023-09-19T05:51:32;25.27;;;17.48;;
19919;SDS011;10122;50.074;19.920;2023-09-19T05:53:58;28.35;;;17.63;;
19919;SDS011;10122;50.074;19.920;2023-09-19T05:56:24;23.27;;;17.77;;
19919;SDS011;10122;50.074;19.920;2023-09-19T05:58:50;27.20;;;17.52;;
19919;SDS011;10122;50.074;19.920;2023-09-19T06:01:17;25.00;;;17.25;;
19919;SDS011;10122;50.074;19.920;2023-09-19T06:03:43;26.33;;;18.23;;
19919;SDS011;10122;50.074;19.920;2023-09-19T06:06:09;25.25;;;16.92;;
19919;SDS011;10122;50.074;19.920;2023-09-19T06:08:35;24.75;;;18.05;;
19919;SDS011;10122;50.074;19.920;2023-09-19T06:11:01;25.85;;;17.02;;
19919;SDS011;10122;50.074;19.920;2023-09-19T06:13:28;24.90;;;17.05;;
19919;SDS011;10122;50.074;19.920;2023-09-19T06:15:57;22.48;;;17.33;;
19919;SDS011;10122;50.074;19.920;2023-09-19T06:18:24;23.73;;;16.73;;
19919;SDS011;10122;50.074;19.920;2023-09-19T06:20:51;27.52;;;17.98;;
19919;SDS011;10122;50.074;19.920;2023-09-19T06:23:17;23.13;;;17.77;;
19919;SDS011;10122;50.074;19.920;2023-09-19T06:25:45;25.20;;;17.73;;
19919;SDS011;10122;50.074;19.920;2023-09-19T06:28:11;29.08;;;18.08;;
19919;SDS011;10122;50.074;19.920;2023-09-19T06:30:37;25.60;;;18.73;;
19919;SDS011;10122;50.074;19.920;2023-09-19T06:33:05;25.95;;;17.60;;
19919;SDS011;10122;50.074;19.920;2023-09-19T06:35:34;28.77;;;18.13;;
19919;SDS011;10122;50.074;19.920;2023-09-19T06:38:04;29.83;;;18.60;;
19919;SDS011;10122;50.074;19.920;2023-09-19T06:40:30;25.15;;;17.52;;
19919;SDS011;10122;50.074;19.920;2023-09-19T06:42:57;26.38;;;18.00;;
19919;SDS011;10122;50.074;19.920;2023-09-19T06:45:23;49.60;;;44.65;;
19919;SDS011;10122;50.074;19.920;2023-09-19T06:47:51;27.48;;;18.33;;
19919;SDS011;10122;50.074;19.920;2023-09-19T06:50:22;28.50;;;18.17;;
19919;SDS011;10122;50.074;19.920;2023-09-19T06:52:49;26.55;;;18.70;;
19919;SDS011;10122;50.074;19.920;2023-09-19T06:55:17;25.83;;;17.52;;
19919;SDS011;10122;50.074;19.920;2023-09-19T06:57:45;25.00;;;17.90;;
19919;SDS011;10122;50.074;19.920;2023-09-19T07:00:11;27.05;;;18.02;;
19919;SDS011;10122;50.074;19.920;2023-09-19T07:02:43;24.30;;;17.33;;
19919;SDS011;10122;50.074;19.920;2023-09-19T07:05:10;27.10;;;18.15;;
19919;SDS011;10122;50.074;19.920;2023-09-19T07:07:36;25.10;;;17.10;;
19919;SDS011;10122;50.074;19.920;2023-09-19T07:10:03;25.27;;;15.93;;
19919;SDS011;10122;50.074;19.920;2023-09-19T07:12:35;21.02;;;15.70;;
19919;SDS011;10122;50.074;19.920;2023-09-19T07:15:02;19.92;;;15.23;;
19919;SDS011;10122;50.074;19.920;2023-09-19T07:17:28;20.63;;;15.55;;
19919;SDS011;10122;50.074;19.920;2023-09-19T07:19:54;22.60;;;15.10;;
19919;SDS011;10122;50.074;19.920;2023-09-19T07:22:21;20.25;;;14.82;;
19919;SDS011;10122;50.074;19.920;2023-09-19T07:24:48;17.55;;;14.68;;
19919;SDS011;10122;50.074;19.920;2023-09-19T07:27:14;17.85;;;14.25;;
19919;SDS011;10122;50.074;19.920;2023-09-19T07:29:41;17.65;;;14.05;;
19919;SDS011;10122;50.074;19.920;2023-09-19T07:32:07;19.95;;;14.48;;
19919;SDS011;10122;50.074;19.920;2023-09-19T07:34:35;19.80;;;15.32;;
19919;SDS011;10122;50.074;19.920;2023-09-19T07:37:01;19.02;;;14.77;;
19919;SDS011;10122;50.074;19.920;2023-09-19T07:39:27;22.50;;;15.23;;
19919;SDS011;10122;50.074;19.920;2023-09-19T07:41:54;17.58;;;14.05;;
19919;SDS011;10122;50.074;19.920;2023-09-19T07:44:21;18.90;;;14.73;;
19919;SDS011;10122;50.074;19.920;2023-09-19T07:46:47;16.10;;;13.48;;
19919;SDS011;10122;50.074;19.920;2023-09-19T07:49:16;17.27;;;14.07;;
19919;SDS011;10122;50.074;19.920;2023-09-19T07:51:42;18.27;;;14.13;;
19919;SDS011;10122;50.074;19.920;2023-09-19T07:54:11;17.75;;;13.52;;
19919;SDS011;10122;50.074;19.920;2023-09-19T07:56:38;18.58;;;14.50;;
19919;SDS011;10122;50.074;19.920;2023-09-19T07:59:04;20.05;;;14.02;;
19919;SDS011;10122;50.074;19.920;2023-09-19T08:01:30;17.17;;;13.68;;
19919;SDS011;10122;50.074;19.920;2023-09-19T08:03:58;16.23;;;12.75;;
19919;SDS011;10122;50.074;19.920;2023-09-19T08:06:24;16.58;;;12.48;;
19919;SDS011;10122;50.074;19.920;2023-09-19T08:08:55;12.55;;;11.25;;
19919;SDS011;10122;50.074;19.920;2023-09-19T08:11:22;12.43;;;11.05;;
19919;SDS011;10122;50.074;19.920;2023-09-19T08:13:49;13.25;;;11.38;;
19919;SDS011;10122;50.074;19.920;2023-09-19T08:16:16;19.08;;;11.95;;
19919;SDS011;10122;50.074;19.920;2023-09-19T08:18:46;13.68;;;11.63;;
19919;SDS011;10122;50.074;19.920;2023-09-19T08:21:12;16.58;;;10.80;;
19919;SDS011;10122;50.074;19.920;2023-09-19T08:23:39;14.02;;;12.00;;
19919;SDS011;10122;50.074;19.920;2023-09-19T08:26:05;13.60;;;11.90;;
19919;SDS011;10122;50.074;19.920;2023-09-19T08:28:36;12.30;;;10.43;;
19919;SDS011;10122;50.074;19.920;2023-09-19T08:31:06;12.15;;;10.40;;
19919;SDS011;10122;50.074;19.920;2023-09-19T08:33:33;10.32;;;9.13;;
19919;SDS011;10122;50.074;19.920;2023-09-19T08:36:00;12.27;;;9.27;;
19919;SDS011;10122;50.074;19.920;2023-09-19T08:38:29;13.93;;;9.65;;
19919;SDS011;10122;50.074;19.920;2023-09-19T08:40:58;15.18;;;10.10;;
19919;SDS011;10122;50.074;19.920;2023-09-19T08:43:25;11.55;;;10.10;;
19919;SDS011;10122;50.074;19.920;2023-09-19T08:46:14;13.27;;;11.02;;
19919;SDS011;10122;50.074;19.920;2023-09-19T08:48:39;14.55;;;10.38;;
19919;SDS011;10122;50.074;19.920;2023-09-19T08:51:19;12.98;;;10.95;;
19919;SDS011;10122;50.074;19.920;2023-09-19T08:53:58;15.02;;;10.52;;
19919;SDS011;10122;50.074;19.920;2023-09-19T08:56:25;14.45;;;10.63;;
19919;SDS011;10122;50.074;19.920;2023-09-19T09:01:18;15.35;;;11.15;;
19919;SDS011;10122;50.074;19.920;2023-09-19T09:03:49;14.95;;;11.65;;
19919;SDS011;10122;50.074;19.920;2023-09-19T09:06:17;12.68;;;11.32;;
19919;SDS011;10122;50.074;19.920;2023-09-19T09:08:43;16.65;;;11.82;;
19919;SDS011;10122;50.074;19.920;2023-09-19T09:11:10;17.02;;;12.32;;
19919;SDS011;10122;50.074;19.920;2023-09-19T09:13:36;16.05;;;11.68;;
19919;SDS011;10122;50.074;19.920;2023-09-19T09:16:04;13.80;;;11.95;;
19919;SDS011;10122;50.074;19.920;2023-09-19T09:18:30;14.07;;;12.02;;
19919;SDS011;10122;50.074;19.920;2023-09-19T09:20:56;20.65;;;12.23;;
19919;SDS011;10122;50.074;19.920;2023-09-19T09:23:22;15.40;;;11.82;;
19919;SDS011;10122;50.074;19.920;2023-09-19T09:25:51;41.40;;;38.28;;
19919;SDS011;10122;50.074;19.920;2023-09-19T09:28:27;13.13;;;11.57;;
19919;SDS011;10122;50.074;19.920;2023-09-19T09:30:54;12.80;;;11.15;;
19919;SDS011;10122;50.074;19.920;2023-09-19T09:33:20;13.00;;;10.85;;
19919;SDS011;10122;50.074;19.920;2023-09-19T09:35:56;14.13;;;10.43;;
19919;SDS011;10122;50.074;19.920;2023-09-19T09:38:25;12.77;;;10.30;;
19919;SDS011;10122;50.074;19.920;2023-09-19T09:40:59;12.68;;;10.45;;
19919;SDS011;10122;50.074;19.920;2023-09-19T09:43:34;11.20;;;10.00;;
19919;SDS011;10122;50.074;19.920;2023-09-19T09:46:08;11.15;;;10.02;;
19919;SDS011;10122;50.074;19.920;2023-09-19T09:51:42;11.85;;;9.57;;
19919;SDS011;10122;50.074;19.920;2023-09-19T09:54:11;14.90;;;9.68;;
19919;SDS011;10122;50.074;19.920;2023-09-19T09:56:53;10.05;;;9.05;;
19919;SDS011;10122;50.074;19.920;2023-09-19T09:59:20;10.40;;;9.30;;
19919;SDS011;10122;50.074;19.920;2023-09-19T10:01:49;10.15;;;9.05;;
19919;SDS011;10122;50.074;19.920;2023-09-19T10:04:26;14.35;;;9.82;;
19919;SDS011;10122;50.074;19.920;2023-09-19T10:07:01;10.55;;;9.07;;
19919;SDS011;10122;50.074;19.920;2023-09-19T10:09:46;11.10;;;9.05;;
19919;SDS011;10122;50.074;19.920;2023-09-19T10:12:16;13.93;;;9.15;;
19919;SDS011;10122;50.074;19.920;2023-09-19T10:14:43;11.70;;;9.20;;
19919;SDS011;10122;50.074;19.920;2023-09-19T10:17:12;11.80;;;9.18;;
19919;SDS011;10122;50.074;19.920;2023-09-19T10:22:16;12.38;;;9.30;;
19919;SDS011;10122;50.074;19.920;2023-09-19T10:24:47;10.93;;;9.02;;
19919;SDS011;10122;50.074;19.920;2023-09-19T10:27:14;10.13;;;8.90;;
19919;SDS011;10122;50.074;19.920;2023-09-19T10:29:41;10.40;;;9.10;;
19919;SDS011;10122;50.074;19.920;2023-09-19T10:32:09;9.65;;;8.65;;
19919;SDS011;10122;50.074;19.920;2023-09-19T10:34:43;10.43;;;8.73;;
19919;SDS011;10122;50.074;19.920;2023-09-19T10:37:10;11.48;;;9.57;;
19919;SDS011;10122;50.074;19.920;2023-09-19T10:39:39;12.63;;;9.65;;
19919;SDS011;10122;50.074;19.920;2023-09-19T10:42:07;11.15;;;9.60;;
19919;SDS011;10122;50.074;19.920;2023-09-19T10:44:42;11.18;;;9.88;;
19919;SDS011;10122;50.074;19.920;2023-09-19T10:47:09;10.48;;;9.23;;
19919;SDS011;10122;50.074;19.920;2023-09-19T10:49:42;12.63;;;9.50;;
19919;SDS011;10122;50.074;19.920;2023-09-19T10:52:08;11.35;;;9.43;;
19919;SDS011;10122;50.074;19.920;2023-09-19T10:54:41;13.05;;;9.90;;
19919;SDS011;10122;50.074;19.920;2023-09-19T10:57:12;12.32;;;9.82;;
19919;SDS011;10122;50.074;19.920;2023-09-19T10:59:59;13.52;;;10.13;;
19919;SDS011;10122;50.074;19.920;2023-09-19T11:02:27;10.70;;;9.63;;
19919;SDS011;10122;50.074;19.920;2023-09-19T11:04:53;10.07;;;9.00;;
19919;SDS011;10122;50.074;19.920;2023-09-19T11:07:21;10.13;;;9.05;;
19919;SDS011;10122;50.074;19.920;2023-09-19T11:09:54;10.48;;;9.02;;
19919;SDS011;10122;50.074;19.920;2023-09-19T11:15:01;10.48;;;9.43;;
19919;SDS011;10122;50.074;19.920;2023-09-19T11:17:34;13.85;;;10.20;;
19919;SDS011;10122;50.074;19.920;2023-09-19T11:30:47;11.25;;;10.18;;
19919;SDS011;10122;50.074;19.920;2023-09-19T11:33:23;11.18;;;9.80;;
19919;SDS011;10122;50.074;19.920;2023-09-19T11:44:33;11.95;;;9.65;;
19919;SDS011;10122;50.074;19.920;2023-09-19T11:49:40;12.02;;;9.57;;
19919;SDS011;10122;50.074;19.920;2023-09-19T11:52:04;14.25;;;9.82;;
19919;SDS011;10122;50.074;19.920;2023-09-19T11:54:30;10.98;;;9.40;;
19919;SDS011;10122;50.074;19.920;2023-09-19T11:56:57;10.52;;;8.73;;
19919;SDS011;10122;50.074;19.920;2023-09-19T11:59:24;10.65;;;9.40;;
19919;SDS011;10122;50.074;19.920;2023-09-19T12:01:56;9.90;;;8.80;;
19919;SDS011;10122;50.074;19.920;2023-09-19T12:04:36;9.95;;;8.85;;
19919;SDS011;10122;50.074;19.920;2023-09-19T12:07:03;9.98;;;8.95;;
19919;SDS011;10122;50.074;19.920;2023-09-19T12:09:30;10.20;;;8.57;;
19919;SDS011;10122;50.074;19.920;2023-09-19T12:11:56;9.63;;;8.70;;
19919;SDS011;10122;50.074;19.920;2023-09-19T12:14:26;10.68;;;9.07;;
19919;SDS011;10122;50.074;19.920;2023-09-19T12:16:55;9.82;;;8.82;;
19919;SDS011;10122;50.074;19.920;2023-09-19T12:19:21;10.38;;;8.85;;
19919;SDS011;10122;50.074;19.920;2023-09-19T12:21:58;10.00;;;9.05;;
19919;SDS011;10122;50.074;19.920;2023-09-19T12:24:28;10.30;;;9.15;;
19919;SDS011;10122;50.074;19.920;2023-09-19T12:26:59;10.18;;;8.90;;
19919;SDS011;10122;50.074;19.920;2023-09-19T12:29:28;11.93;;;9.70;;
19919;SDS011;10122;50.074;19.920;2023-09-19T12:31:55;10.85;;;9.07;;
19919;SDS011;10122;50.074;19.920;2023-09-19T12:34:32;12.82;;;9.27;;
19919;SDS011;10122;50.074;19.920;2023-09-19T12:37:07;10.40;;;9.40;;
19919;SDS011;10122;50.074;19.920;2023-09-19T12:40:09;10.70;;;9.40;;
19919;SDS011;10122;50.074;19.920;2023-09-19T12:42:47;9.77;;;8.88;;
19919;SDS011;10122;50.074;19.920;2023-09-19T12:45:14;9.82;;;8.82;;
19919;SDS011;10122;50.074;19.920;2023-09-19T12:50:28;10.13;;;9.05;;
19919;SDS011;10122;50.074;19.920;2023-09-19T12:52:54;9.80;;;8.90;;
19919;SDS011;10122;50.074;19.920;2023-09-19T13:00:34;12.57;;;9.35;;
19919;SDS011;10122;50.074;19.920;2023-09-19T13:05:59;9.80;;;8.80;;
19919;SDS011;10122;50.074;19.920;2023-09-19T13:08:31;9.55;;;8.57;;
19919;SDS011;10122;50.074;19.920;2023-09-19T13:13:41;11.00;;;9.35;;
19919;SDS011;10122;50.074;19.920;2023-09-19T13:16:09;10.80;;;9.65;;
19919;SDS011;10122;50.074;19.920;2023-09-19T13:18:42;10.15;;;8.98;;
19919;SDS011;10122;50.074;19.920;2023-09-19T13:21:10;10.23;;;9.23;;
19919;SDS011;10122;50.074;19.920;2023-09-19T13:23:40;12.15;;;9.18;;
19919;SDS011;10122;50.074;19.920;2023-09-19T13:26:07;11.55;;;9.63;;
19919;SDS011;10122;50.074;19.920;2023-09-19T13:28:33;12.50;;;9.60;;
19919;SDS011;10122;50.074;19.920;2023-09-19T13:31:00;10.27;;;9.27;;
19919;SDS011;10122;50.074;19.920;2023-09-19T13:33:26;10.95;;;9.57;;
19919;SDS011;10122;50.074;19.920;2023-09-19T13:35:52;11.15;;;9.95;;
19919;SDS011;10122;50.074;19.920;2023-09-19T13:38:18;10.45;;;9.35;;
19919;SDS011;10122;50.074;19.920;2023-09-19T13:40:47;11.20;;;9.90;;
19919;SDS011;10122;50.074;19.920;2023-09-19T13:43:14;10.95;;;9.90;;
19919;SDS011;10122;50.074;19.920;2023-09-19T13:45:41;13.55;;;9.80;;
19919;SDS011;10122;50.074;19.920;2023-09-19T13:48:07;10.70;;;9.70;;
19919;SDS011;10122;50.074;19.920;2023-09-19T13:50:34;10.57;;;9.60;;
19919;SDS011;10122;50.074;19.920;2023-09-19T13:53:01;11.18;;;9.27;;
19919;SDS011;10122;50.074;19.920;2023-09-19T13:55:28;10.75;;;9.65;;
19919;SDS011;10122;50.074;19.920;2023-09-19T13:57:54;11.70;;;9.80;;
19919;SDS011;10122;50.074;19.920;2023-09-19T14:00:21;10.65;;;9.60;;
19919;SDS011;10122;50.074;19.920;2023-09-19T14:02:48;33.15;;;30.38;;
19919;SDS011;10122;50.074;19.920;2023-09-19T14:05:14;10.00;;;8.75;;
19919;SDS011;10122;50.074;19.920;2023-09-19T14:07:42;10.15;;;9.10;;
19919;SDS011;10122;50.074;19.920;2023-09-19T14:10:08;12.55;;;8.98;;
19919;SDS011;10122;50.074;19.920;2023-09-19T14:12:35;9.95;;;8.88;;
19919;SDS011;10122;50.074;19.920;2023-09-19T14:15:02;10.43;;;8.88;;
19919;SDS011;10122;50.074;19.920;2023-09-19T14:17:28;9.95;;;8.88;;
19919;SDS011;10122;50.074;19.920;2023-09-19T14:19:54;11.40;;;8.98;;
19919;SDS011;10122;50.074;19.920;2023-09-19T14:22:20;10.30;;;9.20;;
19919;SDS011;10122;50.074;19.920;2023-09-19T14:24:47;9.88;;;8.50;;
19919;SDS011;10122;50.074;19.920;2023-09-19T14:27:13;9.05;;;8.15;;
19919;SDS011;10122;50.074;19.920;2023-09-19T14:29:39;11.23;;;8.77;;
19919;SDS011;10122;50.074;19.920;2023-09-19T14:32:06;11.75;;;8.55;;
19919;SDS011;10122;50.074;19.920;2023-09-19T14:34:32;9.35;;;8.32;;
19919;SDS011;10122;50.074;19.920;2023-09-19T14:36:58;9.90;;;8.90;;
19919;SDS011;10122;50.074;19.920;2023-09-19T14:39:25;12.98;;;9.10;;
19919;SDS011;10122;50.074;19.920;2023-09-19T14:41:52;10.27;;;9.27;;
19919;SDS011;10122;50.074;19.920;2023-09-19T14:44:18;10.50;;;9.38;;
19919;SDS011;10122;50.074;19.920;2023-09-19T14:46:44;11.27;;;10.18;;
19919;SDS011;10122;50.074;19.920;2023-09-19T14:49:11;11.35;;;9.13;;
19919;SDS011;10122;50.074;19.920;2023-09-19T14:51:37;11.80;;;9.52;;
19919;SDS011;10122;50.074;19.920;2023-09-19T14:54:07;11.45;;;9.82;;
19919;SDS011;10122;50.074;19.920;2023-09-19T14:56:33;11.32;;;9.70;;
19919;SDS011;10122;50.074;19.920;2023-09-19T14:58:59;11.60;;;10.00;;
19919;SDS011;10122;50.074;19.920;2023-09-19T15:01:25;11.35;;;10.00;;
19919;SDS011;10122;50.074;19.920;2023-09-19T15:03:51;10.90;;;9.82;;
19919;SDS011;10122;50.074;19.920;2023-09-19T15:06:19;12.27;;;10.02;;
19919;SDS011;10122;50.074;19.920;2023-09-19T15:08:47;11.15;;;10.02;;
19919;SDS011;10122;50.074;19.920;2023-09-19T15:11:13;13.23;;;10.35;;
19919;SDS011;10122;50.074;19.920;2023-09-19T15:13:42;10.18;;;9.18;;
19919;SDS011;10122;50.074;19.920;2023-09-19T15:16:08;10.60;;;9.05;;
19919;SDS011;10122;50.074;19.920;2023-09-19T15:18:35;11.40;;;9.68;;
19919;SDS011;10122;50.074;19.920;2023-09-19T15:21:11;10.25;;;9.15;;